Time;durP1;ratioP1;P1;durP2;ratioP2;P2;SDS_P1;SDS_P2;PMS_P1;PMS_P2;Temp;Humidity;BMP_temperature;BMP_pressure;BME280_temperature;BME280_humidity;BME280_pressure;Samples;Min_cycle;Max_cycle;Signal;HPM_P1;HPM_P2
2022/03/19 00:00:36;;;;;;;48.00;28.50;;;;;;;1.96;36.78;102816.15;107775;1270;96148;-76
2022/03/19 00:03:13;;;;;;;52.10;28.70;;;;;;;1.94;36.89;102811.40;107673;1269;138085;-76
2022/03/19 00:05:45;;;;;;;47.20;27.80;;;;;;;1.92;36.89;102808.92;107798;1269;111643;-75
2022/03/19 00:08:18;;;;;;;45.00;26.50;;;;;;;1.90;37.02;102805.59;107796;1270;109205;-75
2022/03/19 00:10:50;;;;;;;48.20;27.00;;;;;;;1.89;37.14;102803.64;107607;1271;138280;-76
2022/03/19 00:13:22;;;;;;;48.30;25.20;;;;;;;1.89;37.13;102805.03;107768;1270;96074;-76
2022/03/19 00:15:54;;;;;;;45.30;26.80;;;;;;;1.89;37.14;102807.61;107671;1270;138347;-75
2022/03/19 00:18:27;;;;;;;48.90;25.60;;;;;;;1.89;37.24;102811.20;107785;1270;111411;-76
2022/03/19 00:21:00;;;;;;;48.40;26.20;;;;;;;1.88;37.09;102810.11;107684;1270;139775;-75
2022/03/19 00:23:33;;;;;;;47.40;26.50;;;;;;;1.87;37.33;102807.86;107761;1270;106863;-75
2022/03/19 00:26:06;;;;;;;44.90;26.50;;;;;;;1.85;37.37;102802.80;107775;1270;95946;-76
2022/03/19 00:28:38;;;;;;;45.00;25.90;;;;;;;1.84;37.17;102801.02;107688;1270;138309;-75
2022/03/19 00:31:10;;;;;;;42.60;24.50;;;;;;;1.85;37.23;102797.83;107770;1270;111904;-76
2022/03/19 00:33:42;;;;;;;47.80;25.70;;;;;;;1.85;37.17;102797.31;107688;1269;137861;-76
2022/03/19 00:36:15;;;;;;;45.30;25.80;;;;;;;1.83;36.98;102797.56;107792;1270;108802;-75
2022/03/19 00:38:47;;;;;;;41.80;24.70;;;;;;;1.81;37.13;102799.05;107712;1271;96543;-75
2022/03/19 00:41:19;;;;;;;42.10;23.90;;;;;;;1.80;36.98;102800.21;107701;1268;138157;-76
2022/03/19 00:43:51;;;;;;;47.60;25.30;;;;;;;1.78;37.04;102801.44;107791;1270;111482;-75
2022/03/19 00:46:23;;;;;;;46.00;25.60;;;;;;;1.75;37.16;102801.66;107628;1270;137855;-75
2022/03/19 00:48:56;;;;;;;42.40;24.60;;;;;;;1.71;37.00;102801.66;107786;1270;108143;-76
2022/03/19 00:51:28;;;;;;;41.80;24.70;;;;;;;1.67;37.05;102798.92;107649;1270;138363;-76
2022/03/19 00:54:01;;;;;;;39.20;23.90;;;;;;;1.65;37.26;102798.66;107806;1270;96140;-75
2022/03/19 00:56:33;;;;;;;41.70;24.20;;;;;;;1.62;37.18;102800.23;107783;1270;112741;-76
2022/03/19 00:59:05;;;;;;;43.60;24.50;;;;;;;1.61;37.25;102801.88;107726;1270;138692;-75
2022/03/19 01:01:37;;;;;;;43.90;24.60;;;;;;;1.60;37.19;102796.84;107775;1270;107762;-75
2022/03/19 01:04:09;;;;;;;47.10;26.10;;;;;;;1.56;37.43;102791.90;107705;1270;137866;-76
2022/03/19 01:06:42;;;;;;;47.10;26.40;;;;;;;1.54;37.42;102786.96;107797;1270;96267;-74
2022/03/19 01:09:14;;;;;;;43.10;25.90;;;;;;;1.48;37.38;102786.08;107694;1270;138602;-74
2022/03/19 01:11:46;;;;;;;43.60;26.60;;;;;;;1.44;37.56;102782.63;107803;1270;108333;-74
2022/03/19 01:14:18;;;;;;;47.40;26.40;;;;;;;1.40;37.54;102781.73;107761;1270;107781;-75
2022/03/19 01:16:50;;;;;;;49.60;27.00;;;;;;;1.35;37.65;102782.72;107678;1270;138990;-75
2022/03/19 01:19:52;;;;;;;49.50;26.20;;;;;;;1.33;37.61;102781.24;107793;1270;96033;-76
2022/03/19 01:22:23;;;;;;;52.10;27.00;;;;;;;1.30;37.77;102777.83;107694;1270;138260;-76
2022/03/19 01:24:55;;;;;;;47.00;26.70;;;;;;;1.27;37.79;102776.48;107798;1270;109124;-76
2022/03/19 01:27:27;;;;;;;46.50;27.70;;;;;;;1.25;38.05;102778.45;107669;1270;138075;-76
2022/03/19 01:29:59;;;;;;;45.90;27.80;;;;;;;1.23;38.07;102780.41;107788;1270;96143;-76
2022/03/19 01:32:31;;;;;;;49.60;26.40;;;;;;;1.21;37.97;102783.07;107787;1270;95859;-76
2022/03/19 01:35:04;;;;;;;49.60;27.30;;;;;;;1.18;38.17;102782.97;107627;1270;137963;-75
2022/03/19 01:37:37;;;;;;;46.20;27.10;;;;;;;1.17;38.01;102787.67;107812;1270;109157;-76
2022/03/19 01:40:17;;;;;;;44.70;26.80;;;;;;;1.15;38.09;102792.39;107675;1270;138067;-75
2022/03/19 01:42:50;;;;;;;45.20;25.60;;;;;;;1.13;38.16;102791.96;107709;1270;95965;-76
2022/03/19 01:45:25;;;;;;;49.30;26.60;;;;;;;1.12;38.20;102790.55;107695;1270;138130;-75
2022/03/19 01:47:57;;;;;;;59.40;27.00;;;;;;;1.11;38.17;102788.29;107731;1271;111381;-76
2022/03/19 01:50:30;;;;;;;47.60;26.10;;;;;;;1.11;38.32;102784.86;107806;1269;107855;-75
2022/03/19 01:53:02;;;;;;;47.50;25.90;;;;;;;1.12;38.53;102785.74;107705;1270;138526;-76
2022/03/19 01:55:34;;;;;;;48.30;27.40;;;;;;;1.11;38.23;102785.19;107784;1270;95795;-76
2022/03/19 01:58:06;;;;;;;48.30;26.40;;;;;;;1.10;38.40;102783.08;107703;1270;138815;-76
2022/03/19 02:00:39;;;;;;;43.90;26.20;;;;;;;1.09;38.39;102783.91;107795;1270;109242;-76
2022/03/19 02:03:13;;;;;;;44.30;25.70;;;;;;;1.09;38.55;102782.33;107642;1270;138649;-75
2022/03/19 02:05:48;;;;;;;49.50;26.10;;;;;;;1.08;38.50;102780.92;107727;1270;107789;-76
2022/03/19 02:08:21;;;;;;;50.00;26.00;;;;;;;1.07;38.65;102785.34;107725;1270;96354;-76
2022/03/19 02:10:53;;;;;;;44.90;25.50;;;;;;;1.06;38.39;102786.14;107682;1270;139184;-76
2022/03/19 02:13:25;;;;;;;44.20;24.50;;;;;;;1.05;38.41;102785.73;107796;1270;111344;-76
2022/03/19 02:15:58;;;;;;;45.80;25.40;;;;;;;1.04;38.43;102793.23;107684;1270;138258;-75
2022/03/19 02:18:30;;;;;;;41.50;23.80;;;;;;;1.02;38.37;102793.66;107668;1271;107846;-76
2022/03/19 02:21:04;;;;;;;45.80;24.60;;;;;;;1.02;38.56;102787.65;107682;1270;139773;-75
2022/03/19 02:26:25;;;;;;;41.30;24.90;;;;;;;1.03;38.16;102788.22;107778;1270;112447;-77
2022/03/19 02:28:58;;;;;;;44.80;25.10;;;;;;;1.01;38.21;102783.00;107667;1270;137981;-76
2022/03/19 02:31:30;;;;;;;41.20;24.30;;;;;;;1.01;38.39;102784.34;107785;1269;107562;-76
2022/03/19 02:34:02;;;;;;;50.90;24.90;;;;;;;1.01;38.79;102784.02;107668;1270;137875;-76
2022/03/19 02:36:35;;;;;;;44.00;25.20;;;;;;;1.02;38.60;102784.73;107807;1270;96066;-76
2022/03/19 02:39:30;;;;;;;46.30;24.20;;;;;;;1.01;38.52;102788.30;107689;1270;139791;-76
2022/03/19 02:42:04;;;;;;;46.30;24.10;;;;;;;1.01;38.51;102791.54;107833;1270;109070;-75
2022/03/19 02:44:37;;;;;;;40.10;24.50;;;;;;;0.98;38.73;102795.35;107770;1270;107938;-76
2022/03/19 02:47:10;;;;;;;45.00;25.70;;;;;;;0.96;38.65;102800.94;107678;1270;138427;-76
2022/03/19 02:49:42;;;;;;;45.50;25.00;;;;;;;0.95;38.59;102797.95;107769;1270;96199;-76
2022/03/19 02:52:14;;;;;;;46.10;25.70;;;;;;;0.94;38.57;102798.95;107673;1270;138769;-76
2022/03/19 02:54:46;;;;;;;44.90;25.60;;;;;;;0.93;38.59;102792.02;107734;1271;108790;-76
2022/03/19 02:57:18;;;;;;;49.10;26.70;;;;;;;0.90;38.65;102796.70;107636;1270;139410;-76
2022/03/19 02:59:50;;;;;;;46.00;25.60;;;;;;;0.89;38.64;102799.19;107777;1269;96916;-76
2022/03/19 03:02:22;;;;;;;44.00;26.30;;;;;;;0.87;38.83;102800.84;107796;1270;96183;-76
2022/03/19 03:04:54;;;;;;;48.60;26.20;;;;;;;0.86;38.77;102804.36;107689;1270;137811;-76
2022/03/19 03:07:26;;;;;;;46.90;25.20;;;;;;;0.84;38.79;102801.51;107802;1270;108942;-76
2022/03/19 03:09:58;;;;;;;49.40;26.10;;;;;;;0.82;38.68;102805.20;107673;1270;137898;-76
2022/03/19 03:12:31;;;;;;;50.00;26.50;;;;;;;0.80;38.77;102808.04;107776;1270;96218;-76
2022/03/19 03:15:03;;;;;;;52.40;26.80;;;;;;;0.80;38.79;102810.26;107621;1271;138286;-75
2022/03/19 03:17:36;;;;;;;47.00;24.60;;;;;;;0.79;38.83;102805.39;107790;1269;111502;-76
2022/03/19 03:20:10;;;;;;;43.00;24.80;;;;;;;0.78;38.71;102806.38;107798;1269;106564;-76
2022/03/19 03:22:44;;;;;;;45.30;24.50;;;;;;;0.78;39.05;102804.51;107686;1270;140161;-76
2022/03/19 03:25:17;;;;;;;45.90;24.60;;;;;;;0.78;38.84;102804.34;107811;1270;96018;-75
2022/03/19 03:27:51;;;;;;;44.70;25.10;;;;;;;0.79;38.71;102801.45;107689;1270;137854;-75
2022/03/19 03:30:25;;;;;;;45.20;24.30;;;;;;;0.79;38.75;102806.63;107777;1270;111479;-76
2022/03/19 03:32:57;;;;;;;44.80;24.30;;;;;;;0.79;38.88;102807.98;107673;1270;138524;-76
2022/03/19 03:35:29;;;;;;;42.90;23.00;;;;;;;0.78;38.93;102806.39;107730;1270;108531;-75
2022/03/19 03:38:01;;;;;;;39.20;23.20;;;;;;;0.78;38.87;102811.02;107761;1270;96207;-75
2022/03/19 03:40:33;;;;;;;41.90;24.00;;;;;;;0.77;38.96;102813.03;107662;1270;137793;-76
2022/03/19 03:43:05;;;;;;;44.50;24.50;;;;;;;0.77;39.18;102813.17;107793;1270;113792;-75
2022/03/19 03:45:38;;;;;;;43.60;23.90;;;;;;;0.76;39.09;102814.35;107678;1270;138250;-76
2022/03/19 03:48:10;;;;;;;41.50;22.80;;;;;;;0.76;39.03;102817.79;107765;1270;109585;-75
2022/03/19 03:50:42;;;;;;;47.90;26.50;;;;;;;0.78;39.07;102816.13;107774;1270;96119;-76
2022/03/19 03:53:15;;;;;;;48.90;26.90;;;;;;;0.76;39.31;102816.58;107692;1270;137821;-76
2022/03/19 03:55:48;;;;;;;55.00;30.10;;;;;;;0.74;39.91;102813.06;107791;1270;110983;-77
2022/03/19 03:58:21;;;;;;;62.90;35.60;;;;;;;0.72;40.30;102811.74;107702;1270;137978;-76
2022/03/19 04:00:53;;;;;;;66.90;35.90;;;;;;;0.71;40.98;102808.57;107764;1270;107357;-77
2022/03/19 04:03:26;;;;;;;75.80;38.40;;;;;;;0.66;41.45;102808.16;107672;1270;138053;-74
2022/03/19 04:05:58;;;;;;;74.50;41.00;;;;;;;0.60;41.66;102807.55;107795;1270;96628;-74
2022/03/19 04:08:30;;;;;;;77.00;40.60;;;;;;;0.55;41.92;102807.69;107787;1270;113260;-74
2022/03/19 04:11:02;;;;;;;72.40;39.20;;;;;;;0.53;42.28;102809.08;107691;1270;138690;-75
2022/03/19 04:13:35;;;;;;;70.30;37.50;;;;;;;0.49;42.39;102811.09;107762;1270;107435;-73
2022/03/19 04:16:07;;;;;;;86.80;45.50;;;;;;;0.44;42.47;102813.80;107679;1270;138151;-74
2022/03/19 04:18:41;;;;;;;82.50;45.30;;;;;;;0.39;43.21;102813.34;107792;1270;96007;-74
2022/03/19 04:21:13;;;;;;;92.20;49.40;;;;;;;0.33;43.49;102809.27;107699;1270;138563;-75
2022/03/19 04:23:45;;;;;;;91.10;51.30;;;;;;;0.28;43.77;102812.14;107807;1270;108789;-74
2022/03/19 04:26:18;;;;;;;96.80;52.30;;;;;;;0.23;44.39;102817.86;107809;1270;107948;-75
2022/03/19 04:28:50;;;;;;;104.70;56.10;;;;;;;0.17;44.82;102817.71;107683;1270;139256;-74
2022/03/19 04:31:22;;;;;;;103.40;55.10;;;;;;;0.09;45.20;102817.48;107804;1270;96003;-75
2022/03/19 04:33:54;;;;;;;105.10;56.00;;;;;;;0.01;45.70;102819.76;107655;1270;138206;-75
2022/03/19 04:36:32;;;;;;;106.50;56.30;;;;;;;-0.07;45.94;102820.54;107802;1270;105871;-75
2022/03/19 04:39:07;;;;;;;102.30;55.70;;;;;;;-0.13;46.11;102824.89;107697;1270;138477;-74
2022/03/19 04:41:41;;;;;;;109.10;55.90;;;;;;;-0.16;46.38;102823.69;107712;1271;96882;-74
2022/03/19 04:44:16;;;;;;;111.70;56.40;;;;;;;-0.20;46.68;102828.74;107807;1270;96173;-75
2022/03/19 04:46:48;;;;;;;112.80;57.80;;;;;;;-0.25;46.78;102830.71;107674;1270;138015;-74
2022/03/19 04:49:20;;;;;;;111.70;58.80;;;;;;;-0.27;46.96;102825.28;107802;1270;111032;-75
2022/03/19 04:51:52;;;;;;;116.80;58.70;;;;;;;-0.27;46.82;102826.17;107657;1270;139278;-75
2022/03/19 04:54:25;;;;;;;106.40;56.70;;;;;;;-0.25;46.74;102824.02;107751;1271;96612;-74
2022/03/19 04:56:57;;;;;;;113.00;59.30;;;;;;;-0.22;46.94;102827.81;107698;1270;138875;-74
2022/03/19 04:59:30;;;;;;;115.00;59.10;;;;;;;-0.17;47.02;102826.88;107777;1270;111463;-75
2022/03/19 05:02:02;;;;;;;113.70;59.00;;;;;;;-0.10;47.14;102827.44;107795;1270;107789;-75
2022/03/19 05:04:35;;;;;;;120.70;64.00;;;;;;;-0.01;47.08;102825.52;107438;1271;188607;-75
2022/03/19 05:07:07;;;;;;;144.40;81.70;;;;;;;0.09;46.85;102828.56;107779;1270;95958;-76
2022/03/19 05:12:33;;;;;;;129.80;69.50;;;;;;;0.34;46.54;102834.67;107732;1271;111179;-75
2022/03/19 05:15:08;;;;;;;123.00;67.00;;;;;;;0.60;46.64;102834.08;107695;1270;138766;-75
2022/03/19 05:17:41;;;;;;;105.60;58.40;;;;;;;0.84;45.95;102839.02;107768;1270;107994;-74
2022/03/19 05:20:14;;;;;;;112.50;60.90;;;;;;;1.11;45.56;102838.48;107774;1270;96449;-75
2022/03/19 05:22:47;;;;;;;105.10;58.60;;;;;;;1.43;45.22;102839.16;107693;1270;139257;-75
2022/03/19 05:25:19;;;;;;;101.80;55.60;;;;;;;1.83;44.65;102842.49;107813;1270;112039;-76
2022/03/19 05:27:52;;;;;;;95.30;56.10;;;;;;;2.30;43.92;102838.21;107578;1270;138096;-76
2022/03/19 05:30:25;;;;;;;94.10;54.20;;;;;;;2.93;43.15;102837.59;107756;1270;107700;-76
2022/03/19 05:32:58;;;;;;;95.60;55.20;;;;;;;3.88;42.11;102835.92;107549;1270;138536;-75
2022/03/19 05:35:31;;;;;;;93.00;54.90;;;;;;;5.19;40.81;102835.39;107747;1270;96311;-75
2022/03/19 05:38:05;;;;;;;89.40;54.50;;;;;;;6.76;39.37;102832.05;107797;1270;111136;-76
2022/03/19 05:40:37;;;;;;;81.10;52.80;;;;;;;8.32;37.32;102827.85;107699;1270;138240;-76
2022/03/19 05:43:09;;;;;;;86.60;52.70;;;;;;;9.80;35.80;102826.13;107697;1271;108103;-76
2022/03/19 05:45:41;;;;;;;90.10;54.20;;;;;;;11.54;34.20;102819.81;107632;1270;137836;-77
2022/03/19 05:48:14;;;;;;;84.10;51.20;;;;;;;12.97;32.40;102821.72;107768;1270;95759;-76
2022/03/19 05:50:46;;;;;;;78.20;50.40;;;;;;;13.93;30.60;102816.38;107763;1270;112847;-77
2022/03/19 05:53:18;;;;;;;76.90;49.50;;;;;;;14.69;29.59;102821.33;107699;1270;138462;-77
2022/03/19 05:55:50;;;;;;;78.20;51.50;;;;;;;15.60;28.57;102819.16;107781;1270;108001;-78
2022/03/19 05:58:22;;;;;;;73.50;50.50;;;;;;;16.62;27.67;102824.95;107664;1270;139271;-78
2022/03/19 06:00:54;;;;;;;71.50;48.50;;;;;;;17.60;26.69;102815.77;107779;1270;96313;-78
2022/03/19 06:03:27;;;;;;;72.30;48.10;;;;;;;18.55;25.59;102812.44;107672;1270;138370;-78
2022/03/19 06:05:59;;;;;;;74.10;48.80;;;;;;;19.37;24.85;102809.02;107783;1270;107745;-78
2022/03/19 06:08:31;;;;;;;67.40;47.10;;;;;;;20.05;24.06;102809.34;107745;1270;107882;-76
2022/03/19 06:11:04;;;;;;;73.70;48.60;;;;;;;20.78;23.22;102816.34;107667;1270;138219;-77
2022/03/19 06:13:36;;;;;;;67.80;45.10;;;;;;;21.57;22.59;102809.80;107793;1270;95945;-77
2022/03/19 06:16:08;;;;;;;58.80;42.80;;;;;;;22.18;21.66;102807.80;107691;1270;141754;-78
2022/03/19 06:18:45;;;;;;;53.40;40.10;;;;;;;22.79;21.14;102807.23;107763;1270;106708;-78
2022/03/19 06:21:18;;;;;;;62.40;42.60;;;;;;;23.44;20.28;102810.23;107693;1270;138634;-77
2022/03/19 06:23:51;;;;;;;60.60;45.50;;;;;;;24.11;20.14;102816.69;107777;1270;96225;-78
2022/03/19 06:26:23;;;;;;;59.20;44.00;;;;;;;24.82;19.62;102820.44;107794;1270;96338;-78
2022/03/19 06:28:55;;;;;;;59.80;43.30;;;;;;;25.57;19.10;102818.94;107657;1270;138065;-78
2022/03/19 06:31:28;;;;;;;59.80;42.00;;;;;;;26.37;18.56;102820.52;107774;1270;109305;-78
2022/03/19 06:34:00;;;;;;;56.90;40.90;;;;;;;27.00;17.84;102825.20;107657;1270;140551;-78
2022/03/19 06:39:22;;;;;;;51.30;39.50;;;;;;;27.97;16.71;102831.61;107667;1270;138172;-78
2022/03/19 06:41:54;;;;;;;52.00;38.70;;;;;;;28.56;16.49;102833.67;107697;1271;114082;-78
2022/03/19 06:44:27;;;;;;;56.60;42.20;;;;;;;29.08;16.20;102833.16;107741;1270;107851;-79
2022/03/19 06:46:59;;;;;;;63.70;42.30;;;;;;;29.64;15.85;102828.05;107618;1270;138290;-78
2022/03/19 06:49:30;;;;;;;73.30;44.80;;;;;;;30.34;15.49;102831.18;107778;1270;96102;-78
2022/03/19 06:52:03;;;;;;;75.50;45.80;;;;;;;30.87;15.10;102835.38;107694;1270;138028;-79
2022/03/19 06:54:35;;;;;;;64.30;43.20;;;;;;;31.31;14.61;102839.30;107790;1270;111997;-79
2022/03/19 06:57:07;;;;;;;65.40;45.80;;;;;;;31.68;14.29;102839.59;107683;1270;138438;-79
2022/03/19 06:59:40;;;;;;;56.60;43.10;;;;;;;32.16;14.03;102837.10;107804;1270;108791;-79
2022/03/19 07:02:12;;;;;;;58.80;43.20;;;;;;;32.51;13.67;102841.89;107794;1270;97338;-79
2022/03/19 07:04:44;;;;;;;47.10;35.40;;;;;;;32.97;13.45;102837.27;107680;1271;138781;-79
2022/03/19 07:07:17;;;;;;;47.90;37.20;;;;;;;33.39;12.83;102842.71;107714;1271;112649;-79
2022/03/19 07:09:51;;;;;;;45.90;33.30;;;;;;;33.55;12.51;102837.31;107689;1270;138913;-79
2022/03/19 07:12:23;;;;;;;37.80;28.90;;;;;;;33.65;12.05;102838.80;107800;1270;108098;-78
2022/03/19 07:14:56;;;;;;;33.80;25.30;;;;;;;33.69;11.81;102834.89;107691;1270;142131;-78
2022/03/19 07:17:28;;;;;;;34.90;24.90;;;;;;;33.82;11.64;102839.09;107818;1270;95828;-79
2022/03/19 07:20:00;;;;;;;30.70;24.70;;;;;;;33.80;11.51;102844.20;107783;1270;111575;-79
2022/03/19 07:22:47;;;;;;;27.10;20.60;;;;;;;33.69;11.13;102846.06;107675;1270;138031;-79
2022/03/19 07:25:21;;;;;;;25.80;19.80;;;;;;;33.55;11.16;102855.21;107761;1270;107808;-79
2022/03/19 07:27:55;;;;;;;26.70;19.80;;;;;;;33.53;11.09;102854.33;107587;1270;138011;-79
2022/03/19 07:30:28;;;;;;;24.60;19.20;;;;;;;33.30;11.04;102855.46;107807;1270;95950;-79
2022/03/19 07:33:01;;;;;;;20.30;17.30;;;;;;;33.20;10.65;102857.40;107661;1271;138445;-78
2022/03/19 07:35:33;;;;;;;24.30;19.00;;;;;;;33.11;10.47;102856.38;107783;1270;106912;-79
2022/03/19 07:38:06;;;;;;;21.70;17.80;;;;;;;33.04;10.74;102860.23;107787;1270;107774;-79
2022/03/19 07:43:30;;;;;;;17.50;14.30;;;;;;;33.00;10.48;102858.56;107716;1271;95998;-79
2022/03/19 07:46:03;;;;;;;15.20;12.90;;;;;;;33.06;10.32;102860.12;107676;1271;138675;-79
2022/03/19 07:48:35;;;;;;;16.80;13.50;;;;;;;33.02;9.66;102862.02;107807;1270;107838;-79
2022/03/19 07:51:09;;;;;;;17.00;12.90;;;;;;;32.94;9.56;102864.14;107650;1270;138906;-78
2022/03/19 07:53:41;;;;;;;19.50;14.30;;;;;;;32.46;9.59;102865.40;107786;1270;95887;-79
2022/03/19 07:56:16;;;;;;;19.80;14.50;;;;;;;32.04;9.77;102869.77;107796;1270;96199;-79
2022/03/19 07:58:50;;;;;;;19.20;13.20;;;;;;;31.92;9.90;102872.20;107690;1271;137601;-78
2022/03/19 08:01:23;;;;;;;18.00;15.00;;;;;;;31.88;9.62;102872.11;107805;1271;107685;-78
2022/03/19 08:03:55;;;;;;;22.30;15.90;;;;;;;31.72;9.81;102877.02;107679;1270;137896;-78
2022/03/19 08:06:27;;;;;;;23.70;16.10;;;;;;;31.62;9.77;102880.02;107763;1270;96026;-78
2022/03/19 08:09:00;;;;;;;20.60;16.30;;;;;;;31.66;9.75;102882.21;107679;1270;138458;-78
2022/03/19 08:11:33;;;;;;;23.00;16.50;;;;;;;31.64;9.92;102879.30;107727;1270;112409;-78
2022/03/19 08:14:05;;;;;;;19.70;14.60;;;;;;;31.62;9.75;102881.05;107784;1270;108815;-78
2022/03/19 08:16:38;;;;;;;17.40;14.70;;;;;;;31.55;9.56;102885.02;107621;1270;138032;-78
2022/03/19 08:19:13;;;;;;;22.90;16.60;;;;;;;31.40;9.60;102885.91;107764;1270;95784;-79
2022/03/19 08:21:46;;;;;;;21.80;17.20;;;;;;;31.34;9.65;102892.89;107661;1271;137827;-78
2022/03/19 08:24:22;;;;;;;23.40;16.40;;;;;;;31.35;9.98;102894.52;107809;1270;112199;-78
2022/03/19 08:26:55;;;;;;;17.90;13.90;;;;;;;31.53;9.64;102895.45;106354;1271;137925;-73
2022/03/19 08:29:27;;;;;;;20.20;14.40;;;;;;;31.37;9.05;102894.39;106281;1271;108472;-78
2022/03/19 08:32:00;;;;;;;20.80;14.70;;;;;;;30.94;9.22;102894.32;107790;1270;96162;-79
2022/03/19 08:34:32;;;;;;;20.20;15.40;;;;;;;30.53;9.62;102891.27;107700;1270;138491;-79
2022/03/19 08:37:05;;;;;;;16.00;11.30;;;;;;;30.58;9.47;102898.63;107777;1270;111583;-79
2022/03/19 08:42:27;;;;;;;18.00;15.50;;;;;;;29.13;9.14;102903.38;107765;1270;107572;-78
2022/03/19 08:44:59;;;;;;;20.10;15.30;;;;;;;28.34;8.85;102901.63;107644;1270;138376;-78
2022/03/19 08:47:31;;;;;;;19.90;14.10;;;;;;;27.35;9.48;102903.46;107791;1270;96226;-78
2022/03/19 08:50:04;;;;;;;24.00;17.00;;;;;;;26.74;9.32;102906.35;107785;1271;111122;-78
2022/03/19 08:52:37;;;;;;;23.00;17.00;;;;;;;26.15;9.73;102903.48;107668;1270;137888;-78
2022/03/19 08:55:10;;;;;;;22.20;16.90;;;;;;;25.76;10.52;102909.54;107745;1271;109044;-78
2022/03/19 08:57:42;;;;;;;23.90;18.90;;;;;;;25.74;10.54;102906.29;107672;1270;138994;-78
2022/03/19 09:00:16;;;;;;;30.10;20.50;;;;;;;25.82;10.94;102900.86;107784;1270;96878;-78
2022/03/19 09:02:49;;;;;;;23.10;18.80;;;;;;;26.13;11.41;102906.63;107790;1270;109801;-79
2022/03/19 09:05:21;;;;;;;27.10;18.30;;;;;;;26.27;10.88;102907.98;107663;1271;138173;-79
2022/03/19 09:07:54;;;;;;;25.60;17.40;;;;;;;26.18;10.95;102909.70;107721;1271;108897;-78
2022/03/19 09:10:26;;;;;;;16.70;14.10;;;;;;;26.07;10.77;102909.46;107659;1270;138959;-78
2022/03/19 09:12:59;;;;;;;24.30;17.90;;;;;;;26.08;10.99;102906.72;107760;1271;96190;-78
2022/03/19 09:15:31;;;;;;;24.00;17.30;;;;;;;26.09;10.82;102907.91;107668;1271;138052;-78
2022/03/19 09:18:05;;;;;;;20.10;13.90;;;;;;;26.20;11.17;102909.77;107765;1271;107885;-78
2022/03/19 09:20:39;;;;;;;15.70;10.10;;;;;;;26.17;10.35;102908.19;107647;1271;108762;-78
2022/03/19 09:23:12;;;;;;;13.80;10.40;;;;;;;25.81;10.30;102910.19;107620;1271;137979;-78
2022/03/19 09:25:44;;;;;;;13.50;10.10;;;;;;;25.42;10.58;102915.80;107327;1271;96323;-77
2022/03/19 09:28:17;;;;;;;12.00;10.50;;;;;;;25.48;10.79;102911.38;106092;1271;138074;-79
2022/03/19 09:30:51;;;;;;;14.10;10.40;;;;;;;25.46;10.52;102912.56;106166;1271;107588;-77
2022/03/19 09:33:24;;;;;;;12.70;9.10;;;;;;;25.46;11.12;102916.11;106073;1271;138605;-78
2022/03/19 09:35:57;;;;;;;13.30;9.60;;;;;;;25.76;11.18;102907.36;106170;1271;97931;-78
2022/03/19 09:38:31;;;;;;;12.00;9.00;;;;;;;25.73;10.52;102914.67;107759;1271;96241;-78
2022/03/19 09:41:04;;;;;;;10.60;8.70;;;;;;;25.52;10.61;102915.27;107659;1271;138922;-79
2022/03/19 09:43:37;;;;;;;12.10;8.50;;;;;;;25.51;10.77;102912.13;107762;1270;107805;-78
2022/03/19 09:46:09;;;;;;;14.30;8.50;;;;;;;25.45;10.52;102914.20;107645;1271;138464;-78
2022/03/19 09:48:42;;;;;;;11.20;8.20;;;;;;;25.16;10.64;102912.54;107742;1270;96330;-78
2022/03/19 09:51:15;;;;;;;12.20;8.50;;;;;;;25.10;10.69;102912.48;107651;1270;137857;-78
2022/03/19 09:53:49;;;;;;;11.60;8.30;;;;;;;24.90;10.57;102911.66;107742;1270;112010;-77
2022/03/19 09:56:35;;;;;;;9.70;8.30;;;;;;;24.77;10.98;102912.01;107739;1270;108867;-78
2022/03/19 09:59:07;;;;;;;9.70;8.70;;;;;;;25.04;11.04;102909.36;107658;1271;137529;-78
2022/03/19 10:01:40;;;;;;;12.20;8.20;;;;;;;25.09;10.71;102914.84;107745;1270;96073;-77
2022/03/19 10:04:17;;;;;;;14.10;9.00;;;;;;;25.08;11.01;102906.69;107664;1270;137768;-77
2022/03/19 10:10:00;;;;;;;12.00;8.50;;;;;;;24.56;10.79;102909.48;107578;1270;124233;-75
2022/03/19 10:12:33;;;;;;;10.10;8.60;;;;;;;24.60;11.29;102914.60;107749;1270;108346;-76
2022/03/19 10:15:09;;;;;;;20.10;8.70;;;;;;;24.74;11.39;102909.65;107626;1271;138246;-76
2022/03/19 10:17:42;;;;;;;15.40;9.90;;;;;;;24.81;11.47;102908.74;107783;1270;95711;-76
2022/03/19 10:20:15;;;;;;;15.20;10.50;;;;;;;24.95;11.31;102903.95;107674;1270;112438;-77
2022/03/19 10:22:49;;;;;;;12.80;8.80;;;;;;;24.92;11.28;102904.80;107653;1270;138235;-76
2022/03/19 10:25:23;;;;;;;12.70;9.50;;;;;;;24.70;10.87;102907.72;107758;1270;109368;-76
2022/03/19 10:28:02;;;;;;;10.90;8.80;;;;;;;24.45;11.32;102904.86;106250;1271;137912;-74
2022/03/19 10:30:39;;;;;;;13.70;9.60;;;;;;;24.48;11.71;102903.09;106201;1270;97834;-76
2022/03/19 10:33:13;;;;;;;15.70;9.90;;;;;;;24.56;11.82;102899.14;107680;1270;138328;-77
2022/03/19 10:35:45;;;;;;;14.30;10.50;;;;;;;24.68;11.84;102894.80;107777;1270;107885;-78
2022/03/19 10:38:22;;;;;;;14.70;9.50;;;;;;;24.83;11.83;102894.27;107771;1271;107749;-77
2022/03/19 10:40:55;;;;;;;13.10;9.00;;;;;;;25.08;11.91;102887.45;107640;1270;137983;-78
2022/03/19 10:43:28;;;;;;;16.90;10.30;;;;;;;25.21;11.63;102884.68;107750;1270;96117;-77
2022/03/19 10:46:02;;;;;;;12.10;9.00;;;;;;;25.12;11.80;102887.23;107663;1270;137850;-77
2022/03/19 10:48:35;;;;;;;11.10;8.90;;;;;;;25.18;11.66;102887.49;107762;1270;107340;-76
2022/03/19 10:51:10;;;;;;;10.70;8.10;;;;;;;25.09;10.93;102892.79;107577;1271;138182;-76
2022/03/19 10:53:43;;;;;;;11.00;8.70;;;;;;;24.12;10.83;102882.56;107780;1270;95775;-77
2022/03/19 10:56:16;;;;;;;13.00;9.20;;;;;;;23.55;11.41;102886.61;107759;1270;96289;-77
2022/03/19 10:59:05;;;;;;;14.40;10.00;;;;;;;23.13;11.68;102883.33;107684;1270;138112;-77
2022/03/19 11:01:38;;;;;;;12.20;9.20;;;;;;;22.79;12.00;102883.88;107790;1271;107944;-77
2022/03/19 11:04:12;;;;;;;10.90;8.00;;;;;;;22.43;11.92;102886.75;107654;1270;138397;-78
2022/03/19 11:06:51;;;;;;;11.10;7.70;;;;;;;21.93;11.77;102886.91;107741;1270;96283;-78
2022/03/19 11:09:27;;;;;;;10.60;7.30;;;;;;;21.51;11.97;102889.34;107664;1270;139263;-77
2022/03/19 11:12:02;;;;;;;10.70;7.40;;;;;;;21.11;12.11;102887.02;107766;1270;112343;-77
2022/03/19 11:14:39;;;;;;;12.90;7.40;;;;;;;20.39;11.89;102885.48;107751;1270;108879;-78
2022/03/19 11:17:25;;;;;;;11.80;7.50;;;;;;;19.69;11.94;102888.79;107608;1270;139111;-76
2022/03/19 11:20:00;;;;;;;10.00;7.80;;;;;;;19.03;12.43;102890.38;107722;1270;96017;-77
2022/03/19 11:22:40;;;;;;;12.90;8.40;;;;;;;18.54;12.71;102887.31;107642;1270;138663;-78
2022/03/19 11:25:23;;;;;;;11.30;8.60;;;;;;;18.27;13.30;102884.05;107778;1270;112654;-77
2022/03/19 11:27:59;;;;;;;11.20;8.30;;;;;;;18.19;13.12;102880.73;107626;1270;138368;-77
2022/03/19 11:30:35;;;;;;;10.60;8.60;;;;;;;17.81;13.20;102884.17;107744;1270;108922;-76
2022/03/19 11:33:16;;;;;;;11.80;8.40;;;;;;;17.28;13.56;102881.83;107194;1270;138225;-76
2022/03/19 11:36:03;;;;;;;12.30;8.50;;;;;;;16.90;13.80;102879.52;106177;1270;97922;-77
2022/03/19 11:38:41;;;;;;;10.50;8.20;;;;;;;16.70;14.13;102872.27;106152;1271;112270;-79
2022/03/19 11:41:23;;;;;;;13.50;7.60;;;;;;;16.76;14.32;102869.38;107626;1270;139760;-79
2022/03/19 11:44:20;;;;;;;11.70;8.70;;;;;;;16.89;14.44;102868.81;107656;1270;107785;-77